sensor_id;sensor_type;location;lat;lon;timestamp;temperature;humidity
12223;DHT22;6174;49.058;8.524;2023-08-06T06:00:46;15.40;99.90
12223;DHT22;6174;49.058;8.524;2023-08-06T06:03:15;15.30;99.90
12223;DHT22;6174;49.058;8.524;2023-08-06T06:06:14;15.30;99.90
12223;DHT22;6174;49.058;8.524;2023-08-06T06:09:14;15.30;99.90
12223;DHT22;6174;49.058;8.524;2023-08-06T06:12:04;15.30;99.90
12223;DHT22;6174;49.058;8.524;2023-08-06T06:14:48;15.20;99.90
12223;DHT22;6174;49.058;8.524;2023-08-06T06:17:41;15.30;99.90
12223;DHT22;6174;49.058;8.524;2023-08-06T06:20:11;15.30;99.90
12223;DHT22;6174;49.058;8.524;2023-08-06T06:22:43;15.30;99.90
12223;DHT22;6174;49.058;8.524;2023-08-06T06:25:18;15.30;99.90
12223;DHT22;6174;49.058;8.524;2023-08-06T06:27:45;15.30;99.90
12223;DHT22;6174;49.058;8.524;2023-08-06T06:30:11;15.30;99.90
12223;DHT22;6174;49.058;8.524;2023-08-06T06:32:41;15.30;99.90
12223;DHT22;6174;49.058;8.524;2023-08-06T06:35:08;15.30;99.90
12223;DHT22;6174;49.058;8.524;2023-08-06T06:37:35;15.30;99.90
12223;DHT22;6174;49.058;8.524;2023-08-06T06:40:02;15.30;99.90
12223;DHT22;6174;49.058;8.524;2023-08-06T06:42:29;15.30;99.90
12223;DHT22;6174;49.058;8.524;2023-08-06T06:44:56;15.30;99.90
12223;DHT22;6174;49.058;8.524;2023-08-06T06:47:23;15.30;99.90
12223;DHT22;6174;49.058;8.524;2023-08-06T06:49:51;15.30;99.90
12223;DHT22;6174;49.058;8.524;2023-08-06T06:52:20;15.30;99.90
12223;DHT22;6174;49.058;8.524;2023-08-06T06:54:47;15.20;99.90
12223;DHT22;6174;49.058;8.524;2023-08-06T06:57:14;15.20;99.90
12223;DHT22;6174;49.058;8.524;2023-08-06T06:59:41;15.20;99.90
12223;DHT22;6174;49.058;8.524;2023-08-06T07:02:07;15.20;99.90
12223;DHT22;6174;49.058;8.524;2023-08-06T07:04:34;15.20;99.90
12223;DHT22;6174;49.058;8.524;2023-08-06T07:07:03;15.20;99.90
12223;DHT22;6174;49.058;8.524;2023-08-06T07:09:30;15.20;99.90
12223;DHT22;6174;49.058;8.524;2023-08-06T07:11:57;15.20;99.90
12223;DHT22;6174;49.058;8.524;2023-08-06T07:14:25;15.30;99.90
12223;DHT22;6174;49.058;8.524;2023-08-06T07:16:52;15.30;99.90
12223;DHT22;6174;49.058;8.524;2023-08-06T07:19:18;15.30;99.90
12223;DHT22;6174;49.058;8.524;2023-08-06T07:21:46;15.30;99.90
12223;DHT22;6174;49.058;8.524;2023-08-06T07:24:14;15.30;99.90
12223;DHT22;6174;49.058;8.524;2023-08-06T07:26:40;15.30;99.90
12223;DHT22;6174;49.058;8.524;2023-08-06T07:29:07;15.30;99.90
12223;DHT22;6174;49.058;8.524;2023-08-06T07:31:34;15.30;99.90
12223;DHT22;6174;49.058;8.524;2023-08-06T07:34:01;15.30;99.90
12223;DHT22;6174;49.058;8.524;2023-08-06T07:36:28;15.40;99.90
12223;DHT22;6174;49.058;8.524;2023-08-06T07:38:54;15.40;99.90
12223;DHT22;6174;49.058;8.524;2023-08-06T07:41:23;15.40;99.90
12223;DHT22;6174;49.058;8.524;2023-08-06T07:43:50;15.40;99.90
12223;DHT22;6174;49.058;8.524;2023-08-06T07:46:17;15.40;99.90
12223;DHT22;6174;49.058;8.524;2023-08-06T07:48:43;15.40;99.90
12223;DHT22;6174;49.058;8.524;2023-08-06T07:51:10;15.50;99.90
12223;DHT22;6174;49.058;8.524;2023-08-06T07:53:37;15.50;99.90
12223;DHT22;6174;49.058;8.524;2023-08-06T07:56:04;15.40;99.90
12223;DHT22;6174;49.058;8.524;2023-08-06T07:58:32;15.40;99.90
12223;DHT22;6174;49.058;8.524;2023-08-06T08:00:59;15.40;99.90
12223;DHT22;6174;49.058;8.524;2023-08-06T08:03:26;15.40;99.90
12223;DHT22;6174;49.058;8.524;2023-08-06T08:05:55;15.40;99.90
12223;DHT22;6174;49.058;8.524;2023-08-06T08:08:23;15.40;99.90
12223;DHT22;6174;49.058;8.524;2023-08-06T08:10:49;15.40;99.90
12223;DHT22;6174;49.058;8.524;2023-08-06T08:13:16;15.40;99.90
12223;DHT22;6174;49.058;8.524;2023-08-06T08:15:44;15.30;99.90
12223;DHT22;6174;49.058;8.524;2023-08-06T08:18:11;15.30;99.90
12223;DHT22;6174;49.058;8.524;2023-08-06T08:20:38;15.30;99.90
12223;DHT22;6174;49.058;8.524;2023-08-06T08:23:04;15.30;99.90
12223;DHT22;6174;49.058;8.524;2023-08-06T08:25:31;15.30;99.90
12223;DHT22;6174;49.058;8.524;2023-08-06T08:27:59;15.20;99.90
12223;DHT22;6174;49.058;8.524;2023-08-06T08:30:26;15.20;99.90
12223;DHT22;6174;49.058;8.524;2023-08-06T08:32:54;15.10;99.90
12223;DHT22;6174;49.058;8.524;2023-08-06T08:35:21;15.10;99.90
12223;DHT22;6174;49.058;8.524;2023-08-06T08:37:48;15.00;99.90
12223;DHT22;6174;49.058;8.524;2023-08-06T08:40:15;14.90;99.90
12223;DHT22;6174;49.058;8.524;2023-08-06T08:42:42;15.00;99.90
12223;DHT22;6174;49.058;8.524;2023-08-06T08:45:12;15.00;99.90
12223;DHT22;6174;49.058;8.524;2023-08-06T08:47:40;15.00;99.90
12223;DHT22;6174;49.058;8.524;2023-08-06T08:50:10;15.00;99.90
12223;DHT22;6174;49.058;8.524;2023-08-06T08:52:39;15.00;99.90
12223;DHT22;6174;49.058;8.524;2023-08-06T08:55:07;15.00;99.90
12223;DHT22;6174;49.058;8.524;2023-08-06T08:57:34;15.10;99.90
12223;DHT22;6174;49.058;8.524;2023-08-06T09:00:01;15.10;99.90
12223;DHT22;6174;49.058;8.524;2023-08-06T09:02:29;15.10;99.90
12223;DHT22;6174;49.058;8.524;2023-08-06T09:04:58;15.20;99.90
12223;DHT22;6174;49.058;8.524;2023-08-06T09:07:27;15.30;99.90
12223;DHT22;6174;49.058;8.524;2023-08-06T09:09:54;15.40;99.90
12223;DHT22;6174;49.058;8.524;2023-08-06T09:12:22;15.50;99.90
12223;DHT22;6174;49.058;8.524;2023-08-06T09:14:49;15.50;99.90
12223;DHT22;6174;49.058;8.524;2023-08-06T09:17:17;15.60;99.90
12223;DHT22;6174;49.058;8.524;2023-08-06T09:19:46;15.60;99.90
12223;DHT22;6174;49.058;8.524;2023-08-06T09:22:14;15.60;99.90
12223;DHT22;6174;49.058;8.524;2023-08-06T09:24:42;15.60;99.90
12223;DHT22;6174;49.058;8.524;2023-08-06T09:27:13;15.60;99.90
12223;DHT22;6174;49.058;8.524;2023-08-06T09:29:41;15.70;99.90
12223;DHT22;6174;49.058;8.524;2023-08-06T09:32:09;15.80;99.90
12223;DHT22;6174;49.058;8.524;2023-08-06T09:34:38;15.90;99.90
12223;DHT22;6174;49.058;8.524;2023-08-06T09:37:05;15.90;99.90
12223;DHT22;6174;49.058;8.524;2023-08-06T09:39:32;15.90;99.90
12223;DHT22;6174;49.058;8.524;2023-08-06T09:42:01;15.90;99.90
12223;DHT22;6174;49.058;8.524;2023-08-06T09:44:31;15.90;99.90
12223;DHT22;6174;49.058;8.524;2023-08-06T09:46:59;15.90;99.90
12223;DHT22;6174;49.058;8.524;2023-08-06T09:49:28;15.90;99.90
12223;DHT22;6174;49.058;8.524;2023-08-06T09:51:55;15.90;99.90
12223;DHT22;6174;49.058;8.524;2023-08-06T09:54:24;15.80;99.90
12223;DHT22;6174;49.058;8.524;2023-08-06T09:56:52;15.80;99.90
12223;DHT22;6174;49.058;8.524;2023-08-06T09:59:21;15.80;99.90
12223;DHT22;6174;49.058;8.524;2023-08-06T10:01:48;15.80;99.90
12223;DHT22;6174;49.058;8.524;2023-08-06T10:04:15;15.80;99.90
12223;DHT22;6174;49.058;8.524;2023-08-06T10:06:46;15.80;99.90
12223;DHT22;6174;49.058;8.524;2023-08-06T10:09:12;15.80;99.90
12223;DHT22;6174;49.058;8.524;2023-08-06T10:11:39;15.80;99.90
12223;DHT22;6174;49.058;8.524;2023-08-06T10:14:10;15.70;99.90
12223;DHT22;6174;49.058;8.524;2023-08-06T10:16:40;15.70;99.90
12223;DHT22;6174;49.058;8.524;2023-08-06T10:19:09;15.80;99.90
12223;DHT22;6174;49.058;8.524;2023-08-06T10:21:38;15.70;99.90
12223;DHT22;6174;49.058;8.524;2023-08-06T10:24:07;15.70;99.90
12223;DHT22;6174;49.058;8.524;2023-08-06T10:26:36;15.70;99.90
12223;DHT22;6174;49.058;8.524;2023-08-06T10:29:35;15.60;99.90
12223;DHT22;6174;49.058;8.524;2023-08-06T10:32:04;15.60;99.90
12223;DHT22;6174;49.058;8.524;2023-08-06T10:34:56;15.60;99.90
12223;DHT22;6174;49.058;8.524;2023-08-06T10:37:23;15.60;99.90
12223;DHT22;6174;49.058;8.524;2023-08-06T10:39:50;15.50;99.90
12223;DHT22;6174;49.058;8.524;2023-08-06T10:42:21;15.40;99.90
12223;DHT22;6174;49.058;8.524;2023-08-06T10:45:10;15.50;99.90
12223;DHT22;6174;49.058;8.524;2023-08-06T10:47:39;15.50;99.90
12223;DHT22;6174;49.058;8.524;2023-08-06T10:50:07;15.40;99.90
12223;DHT22;6174;49.058;8.524;2023-08-06T10:52:34;15.40;99.90
12223;DHT22;6174;49.058;8.524;2023-08-06T10:55:00;15.40;99.90
12223;DHT22;6174;49.058;8.524;2023-08-06T10:57:27;15.40;99.90
12223;DHT22;6174;49.058;8.524;2023-08-06T10:59:54;15.40;99.90
12223;DHT22;6174;49.058;8.524;2023-08-06T11:02:21;15.30;99.90
12223;DHT22;6174;49.058;8.524;2023-08-06T11:04:49;15.30;99.90
12223;DHT22;6174;49.058;8.524;2023-08-06T11:07:17;15.30;99.90
12223;DHT22;6174;49.058;8.524;2023-08-06T11:09:43;15.30;99.90
12223;DHT22;6174;49.058;8.524;2023-08-06T11:12:10;15.20;99.90
12223;DHT22;6174;49.058;8.524;2023-08-06T11:14:37;15.20;99.90
12223;DHT22;6174;49.058;8.524;2023-08-06T11:17:05;15.10;99.90
12223;DHT22;6174;49.058;8.524;2023-08-06T11:19:32;15.10;99.90
12223;DHT22;6174;49.058;8.524;2023-08-06T11:22:00;15.10;99.90
12223;DHT22;6174;49.058;8.524;2023-08-06T11:24:27;15.00;99.90
12223;DHT22;6174;49.058;8.524;2023-08-06T11:26:54;15.00;99.90
12223;DHT22;6174;49.058;8.524;2023-08-06T11:29:21;14.90;99.90
12223;DHT22;6174;49.058;8.524;2023-08-06T11:31:48;14.90;99.90
12223;DHT22;6174;49.058;8.524;2023-08-06T11:34:15;14.80;99.90
12223;DHT22;6174;49.058;8.524;2023-08-06T11:36:43;14.90;99.90
12223;DHT22;6174;49.058;8.524;2023-08-06T11:39:11;14.80;99.90
12223;DHT22;6174;49.058;8.524;2023-08-06T11:41:38;14.80;99.90
12223;DHT22;6174;49.058;8.524;2023-08-06T11:44:05;14.80;99.90
12223;DHT22;6174;49.058;8.524;2023-08-06T11:46:49;14.70;99.90
12223;DHT22;6174;49.058;8.524;2023-08-06T11:49:17;14.80;99.90
12223;DHT22;6174;49.058;8.524;2023-08-06T11:51:47;14.80;99.90
12223;DHT22;6174;49.058;8.524;2023-08-06T11:54:15;14.80;99.90
12223;DHT22;6174;49.058;8.524;2023-08-06T11:56:42;14.80;99.90
12223;DHT22;6174;49.058;8.524;2023-08-06T11:59:09;14.80;99.90
12223;DHT22;6174;49.058;8.524;2023-08-06T12:01:36;14.90;99.90
12223;DHT22;6174;49.058;8.524;2023-08-06T12:04:04;14.90;99.90
12223;DHT22;6174;49.058;8.524;2023-08-06T12:06:42;15.00;99.90
12223;DHT22;6174;49.058;8.524;2023-08-06T12:09:09;15.00;99.90
12223;DHT22;6174;49.058;8.524;2023-08-06T12:11:37;15.00;99.90
12223;DHT22;6174;49.058;8.524;2023-08-06T12:14:04;15.20;99.90
12223;DHT22;6174;49.058;8.524;2023-08-06T12:16:31;15.20;99.90
12223;DHT22;6174;49.058;8.524;2023-08-06T12:18:58;15.30;99.90
12223;DHT22;6174;49.058;8.524;2023-08-06T12:21:24;15.20;99.90
12223;DHT22;6174;49.058;8.524;2023-08-06T12:23:51;15.20;99.90
12223;DHT22;6174;49.058;8.524;2023-08-06T12:26:18;15.30;99.90
12223;DHT22;6174;49.058;8.524;2023-08-06T12:28:46;15.30;99.90
12223;DHT22;6174;49.058;8.524;2023-08-06T12:31:15;15.30;99.90
12223;DHT22;6174;49.058;8.524;2023-08-06T12:33:41;15.30;99.90
12223;DHT22;6174;49.058;8.524;2023-08-06T12:36:08;15.40;99.90
12223;DHT22;6174;49.058;8.524;2023-08-06T12:38:35;15.40;99.90
12223;DHT22;6174;49.058;8.524;2023-08-06T12:41:01;15.40;99.90
12223;DHT22;6174;49.058;8.524;2023-08-06T12:43:29;15.40;99.90
12223;DHT22;6174;49.058;8.524;2023-08-06T12:45:57;15.40;99.90
12223;DHT22;6174;49.058;8.524;2023-08-06T12:48:23;15.40;99.90
12223;DHT22;6174;49.058;8.524;2023-08-06T12:50:50;15.40;99.90
12223;DHT22;6174;49.058;8.524;2023-08-06T12:53:17;15.50;99.90
12223;DHT22;6174;49.058;8.524;2023-08-06T12:55:46;15.50;99.90
12223;DHT22;6174;49.058;8.524;2023-08-06T12:58:13;15.50;99.90
12223;DHT22;6174;49.058;8.524;2023-08-06T13:00:39;15.60;99.90
12223;DHT22;6174;49.058;8.524;2023-08-06T13:03:08;15.50;99.90
12223;DHT22;6174;49.058;8.524;2023-08-06T13:05:34;15.60;99.90
12223;DHT22;6174;49.058;8.524;2023-08-06T13:08:01;15.60;99.90
12223;DHT22;6174;49.058;8.524;2023-08-06T13:10:28;15.50;99.90
12223;DHT22;6174;49.058;8.524;2023-08-06T13:12:56;15.60;99.90
12223;DHT22;6174;49.058;8.524;2023-08-06T13:15:23;15.70;99.90
12223;DHT22;6174;49.058;8.524;2023-08-06T13:17:50;15.80;99.90
12223;DHT22;6174;49.058;8.524;2023-08-06T13:20:18;15.90;99.90
12223;DHT22;6174;49.058;8.524;2023-08-06T13:22:45;16.00;99.90
12223;DHT22;6174;49.058;8.524;2023-08-06T13:25:12;16.20;99.90
12223;DHT22;6174;49.058;8.524;2023-08-06T13:27:40;16.30;99.90
12223;DHT22;6174;49.058;8.524;2023-08-06T13:30:10;16.30;99.90
12223;DHT22;6174;49.058;8.524;2023-08-06T13:32:36;16.40;99.90
12223;DHT22;6174;49.058;8.524;2023-08-06T13:35:04;16.50;99.90
12223;DHT22;6174;49.058;8.524;2023-08-06T13:37:32;16.40;99.90
12223;DHT22;6174;49.058;8.524;2023-08-06T13:39:59;16.40;99.90
12223;DHT22;6174;49.058;8.524;2023-08-06T13:42:25;16.40;99.90
12223;DHT22;6174;49.058;8.524;2023-08-06T13:44:52;16.40;99.90
12223;DHT22;6174;49.058;8.524;2023-08-06T13:47:24;16.40;99.90
12223;DHT22;6174;49.058;8.524;2023-08-06T13:49:51;16.40;99.90
12223;DHT22;6174;49.058;8.524;2023-08-06T13:52:18;16.40;99.90
12223;DHT22;6174;49.058;8.524;2023-08-06T13:54:46;16.40;99.90
12223;DHT22;6174;49.058;8.524;2023-08-06T13:57:13;16.40;99.90
12223;DHT22;6174;49.058;8.524;2023-08-06T13:59:39;16.40;99.90
12223;DHT22;6174;49.058;8.524;2023-08-06T14:02:06;16.40;99.90
12223;DHT22;6174;49.058;8.524;2023-08-06T14:04:33;16.40;99.90
12223;DHT22;6174;49.058;8.524;2023-08-06T14:07:00;16.50;99.90
12223;DHT22;6174;49.058;8.524;2023-08-06T14:09:27;16.40;99.90
12223;DHT22;6174;49.058;8.524;2023-08-06T14:11:55;16.40;99.90
12223;DHT22;6174;49.058;8.524;2023-08-06T14:14:22;16.40;99.90
12223;DHT22;6174;49.058;8.524;2023-08-06T14:16:51;16.40;99.90
12223;DHT22;6174;49.058;8.524;2023-08-06T14:19:18;16.40;99.90
12223;DHT22;6174;49.058;8.524;2023-08-06T14:21:45;16.50;99.90
12223;DHT22;6174;49.058;8.524;2023-08-06T14:24:12;16.60;99.90
12223;DHT22;6174;49.058;8.524;2023-08-06T14:26:39;16.60;99.90
12223;DHT22;6174;49.058;8.524;2023-08-06T14:29:07;16.70;99.90
12223;DHT22;6174;49.058;8.524;2023-08-06T14:31:34;16.80;99.90
12223;DHT22;6174;49.058;8.524;2023-08-06T14:34:01;16.80;99.90
12223;DHT22;6174;49.058;8.524;2023-08-06T14:36:27;16.80;99.90
12223;DHT22;6174;49.058;8.524;2023-08-06T14:38:54;16.90;99.90
12223;DHT22;6174;49.058;8.524;2023-08-06T14:41:21;17.00;99.90
12223;DHT22;6174;49.058;8.524;2023-08-06T14:43:48;17.00;99.90
12223;DHT22;6174;49.058;8.524;2023-08-06T14:46:16;17.10;99.90
12223;DHT22;6174;49.058;8.524;2023-08-06T14:48:43;17.10;99.90
12223;DHT22;6174;49.058;8.524;2023-08-06T14:51:09;17.00;99.90
12223;DHT22;6174;49.058;8.524;2023-08-06T14:53:36;17.00;99.90
12223;DHT22;6174;49.058;8.524;2023-08-06T14:56:03;16.90;99.90
12223;DHT22;6174;49.058;8.524;2023-08-06T14:58:30;16.90;99.90
12223;DHT22;6174;49.058;8.524;2023-08-06T15:00:56;16.90;99.90
12223;DHT22;6174;49.058;8.524;2023-08-06T15:03:25;16.80;99.90
12223;DHT22;6174;49.058;8.524;2023-08-06T15:05:53;16.80;99.90
12223;DHT22;6174;49.058;8.524;2023-08-06T15:08:20;16.80;99.90
12223;DHT22;6174;49.058;8.524;2023-08-06T15:10:50;16.80;99.90
12223;DHT22;6174;49.058;8.524;2023-08-06T15:13:17;17.00;99.90
12223;DHT22;6174;49.058;8.524;2023-08-06T15:15:43;17.00;99.90
12223;DHT22;6174;49.058;8.524;2023-08-06T15:18:10;17.10;99.90
12223;DHT22;6174;49.058;8.524;2023-08-06T15:20:39;17.10;99.90
12223;DHT22;6174;49.058;8.524;2023-08-06T15:23:05;17.10;99.90
12223;DHT22;6174;49.058;8.524;2023-08-06T15:25:32;17.00;99.90
12223;DHT22;6174;49.058;8.524;2023-08-06T15:27:59;16.60;99.90
12223;DHT22;6174;49.058;8.524;2023-08-06T15:30:25;16.40;99.90
12223;DHT22;6174;49.058;8.524;2023-08-06T15:32:52;16.30;99.90
12223;DHT22;6174;49.058;8.524;2023-08-06T15:35:19;16.20;99.90
12223;DHT22;6174;49.058;8.524;2023-08-06T15:37:47;16.20;99.90
12223;DHT22;6174;49.058;8.524;2023-08-06T15:40:14;16.20;99.90
12223;DHT22;6174;49.058;8.524;2023-08-06T15:42:41;16.00;99.90
12223;DHT22;6174;49.058;8.524;2023-08-06T15:45:08;15.90;99.90
12223;DHT22;6174;49.058;8.524;2023-08-06T15:47:35;15.80;99.90
12223;DHT22;6174;49.058;8.524;2023-08-06T15:50:06;15.70;99.90
12223;DHT22;6174;49.058;8.524;2023-08-06T15:52:33;15.60;99.90
12223;DHT22;6174;49.058;8.524;2023-08-06T15:55:01;15.40;99.90
12223;DHT22;6174;49.058;8.524;2023-08-06T15:57:30;15.20;99.90
12223;DHT22;6174;49.058;8.524;2023-08-06T15:59:57;15.10;99.90
12223;DHT22;6174;49.058;8.524;2023-08-06T16:02:24;15.00;99.90
12223;DHT22;6174;49.058;8.524;2023-08-06T16:04:52;15.00;99.90
12223;DHT22;6174;49.058;8.524;2023-08-06T16:07:19;15.00;99.90
12223;DHT22;6174;49.058;8.524;2023-08-06T16:09:49;15.00;99.90
12223;DHT22;6174;49.058;8.524;2023-08-06T16:12:17;15.10;99.90
12223;DHT22;6174;49.058;8.524;2023-08-06T16:14:45;15.10;99.90
12223;DHT22;6174;49.058;8.524;2023-08-06T16:17:12;15.10;99.90
12223;DHT22;6174;49.058;8.524;2023-08-06T16:19:39;15.10;99.90
12223;DHT22;6174;49.058;8.524;2023-08-06T16:22:06;15.10;99.90
12223;DHT22;6174;49.058;8.524;2023-08-06T16:24:34;15.20;99.90
12223;DHT22;6174;49.058;8.524;2023-08-06T16:27:00;15.20;99.90
12223;DHT22;6174;49.058;8.524;2023-08-06T16:29:29;15.20;99.90
12223;DHT22;6174;49.058;8.524;2023-08-06T16:31:55;15.30;99.90
12223;DHT22;6174;49.058;8.524;2023-08-06T16:34:22;15.30;99.90
12223;DHT22;6174;49.058;8.524;2023-08-06T16:36:50;15.30;99.90
12223;DHT22;6174;49.058;8.524;2023-08-06T16:39:16;15.40;99.90
12223;DHT22;6174;49.058;8.524;2023-08-06T16:41:45;15.30;99.90
12223;DHT22;6174;49.058;8.524;2023-08-06T16:44:12;15.30;99.90
12223;DHT22;6174;49.058;8.524;2023-08-06T16:46:40;15.30;99.90
12223;DHT22;6174;49.058;8.524;2023-08-06T16:49:07;15.30;99.90
12223;DHT22;6174;49.058;8.524;2023-08-06T16:54:09;15.20;99.90
12223;DHT22;6174;49.058;8.524;2023-08-06T16:56:36;15.30;99.90
12223;DHT22;6174;49.058;8.524;2023-08-06T16:59:03;15.20;99.90
12223;DHT22;6174;49.058;8.524;2023-08-06T17:01:30;15.30;99.90
12223;DHT22;6174;49.058;8.524;2023-08-06T17:03:58;15.30;99.90
12223;DHT22;6174;49.058;8.524;2023-08-06T17:06:25;15.30;99.90
12223;DHT22;6174;49.058;8.524;2023-08-06T17:08:51;15.30;99.90
12223;DHT22;6174;49.058;8.524;2023-08-06T17:11:18;15.30;99.90
12223;DHT22;6174;49.058;8.524;2023-08-06T17:13:45;15.30;99.90
12223;DHT22;6174;49.058;8.524;2023-08-06T17:16:12;15.30;99.90
12223;DHT22;6174;49.058;8.524;2023-08-06T17:18:38;15.30;99.90
12223;DHT22;6174;49.058;8.524;2023-08-06T17:21:07;15.30;99.90
12223;DHT22;6174;49.058;8.524;2023-08-06T17:23:34;15.30;99.90
12223;DHT22;6174;49.058;8.524;2023-08-06T17:26:00;15.30;99.90
12223;DHT22;6174;49.058;8.524;2023-08-06T17:28:27;15.40;99.90
12223;DHT22;6174;49.058;8.524;2023-08-06T17:30:57;15.50;99.90
12223;DHT22;6174;49.058;8.524;2023-08-06T17:33:24;15.50;99.90
12223;DHT22;6174;49.058;8.524;2023-08-06T17:35:51;15.60;99.90
12223;DHT22;6174;49.058;8.524;2023-08-06T17:38:19;15.50;99.90
12223;DHT22;6174;49.058;8.524;2023-08-06T17:40:45;15.60;99.90
12223;DHT22;6174;49.058;8.524;2023-08-06T17:43:12;15.60;99.90
12223;DHT22;6174;49.058;8.524;2023-08-06T17:45:39;15.60;99.90
12223;DHT22;6174;49.058;8.524;2023-08-06T17:48:06;15.60;99.90
12223;DHT22;6174;49.058;8.524;2023-08-06T17:50:32;15.50;99.90
12223;DHT22;6174;49.058;8.524;2023-08-06T17:52:59;15.60;99.90
12223;DHT22;6174;49.058;8.524;2023-08-06T17:55:27;15.60;99.90
12223;DHT22;6174;49.058;8.524;2023-08-06T17:57:55;15.60;99.90
12223;DHT22;6174;49.058;8.524;2023-08-06T18:00:22;15.60;99.90
12223;DHT22;6174;49.058;8.524;2023-08-06T18:02:50;15.60;99.90
12223;DHT22;6174;49.058;8.524;2023-08-06T18:05:17;15.70;99.90
12223;DHT22;6174;49.058;8.524;2023-08-06T18:07:44;15.60;99.90
12223;DHT22;6174;49.058;8.524;2023-08-06T18:10:11;15.70;99.90
12223;DHT22;6174;49.058;8.524;2023-08-06T18:12:39;15.80;99.90
12223;DHT22;6174;49.058;8.524;2023-08-06T18:15:08;15.80;99.90
12223;DHT22;6174;49.058;8.524;2023-08-06T18:17:36;15.80;99.90
12223;DHT22;6174;49.058;8.524;2023-08-06T18:20:03;15.80;99.90
12223;DHT22;6174;49.058;8.524;2023-08-06T18:22:30;15.80;99.90
12223;DHT22;6174;49.058;8.524;2023-08-06T18:24:57;15.70;99.90
12223;DHT22;6174;49.058;8.524;2023-08-06T18:27:27;15.70;99.90
12223;DHT22;6174;49.058;8.524;2023-08-06T18:29:55;15.80;99.90
12223;DHT22;6174;49.058;8.524;2023-08-06T18:32:22;15.70;99.90
12223;DHT22;6174;49.058;8.524;2023-08-06T18:34:48;15.80;99.90
12223;DHT22;6174;49.058;8.524;2023-08-06T18:37:15;15.70;99.90
12223;DHT22;6174;49.058;8.524;2023-08-06T18:39:42;15.70;99.90
12223;DHT22;6174;49.058;8.524;2023-08-06T18:42:09;15.70;99.90
12223;DHT22;6174;49.058;8.524;2023-08-06T18:44:35;15.70;99.90
12223;DHT22;6174;49.058;8.524;2023-08-06T18:47:04;15.70;99.90
12223;DHT22;6174;49.058;8.524;2023-08-06T18:49:31;15.70;99.90
12223;DHT22;6174;49.058;8.524;2023-08-06T18:51:58;15.70;99.90
12223;DHT22;6174;49.058;8.524;2023-08-06T18:54:24;15.70;99.90
12223;DHT22;6174;49.058;8.524;2023-08-06T18:56:51;15.70;99.90
12223;DHT22;6174;49.058;8.524;2023-08-06T18:59:18;15.70;99.90
12223;DHT22;6174;49.058;8.524;2023-08-06T19:01:47;15.70;99.90
12223;DHT22;6174;49.058;8.524;2023-08-06T19:04:16;15.80;99.90
12223;DHT22;6174;49.058;8.524;2023-08-06T19:06:43;15.80;99.90
12223;DHT22;6174;49.058;8.524;2023-08-06T19:09:09;15.80;99.90
12223;DHT22;6174;49.058;8.524;2023-08-06T19:11:36;15.80;99.90
12223;DHT22;6174;49.058;8.524;2023-08-06T19:14:03;15.80;99.90
12223;DHT22;6174;49.058;8.524;2023-08-06T19:16:30;15.90;99.90
12223;DHT22;6174;49.058;8.524;2023-08-06T19:18:56;15.90;99.90
12223;DHT22;6174;49.058;8.524;2023-08-06T19:21:24;15.90;99.90
12223;DHT22;6174;49.058;8.524;2023-08-06T19:23:51;15.80;99.90
12223;DHT22;6174;49.058;8.524;2023-08-06T19:26:18;15.80;99.90
12223;DHT22;6174;49.058;8.524;2023-08-06T19:28:45;15.90;99.90
12223;DHT22;6174;49.058;8.524;2023-08-06T19:31:12;15.70;99.90
12223;DHT22;6174;49.058;8.524;2023-08-06T19:33:39;15.80;99.90
12223;DHT22;6174;49.058;8.524;2023-08-06T19:36:05;15.60;99.90
12223;DHT22;6174;49.058;8.524;2023-08-06T19:38:34;15.70;99.90
12223;DHT22;6174;49.058;8.524;2023-08-06T19:41:05;15.70;99.90
12223;DHT22;6174;49.058;8.524;2023-08-06T19:43:33;15.70;99.90
12223;DHT22;6174;49.058;8.524;2023-08-06T19:46:00;15.60;99.90
12223;DHT22;6174;49.058;8.524;2023-08-06T19:48:28;15.50;99.90
12223;DHT22;6174;49.058;8.524;2023-08-06T19:50:56;15.10;99.90
12223;DHT22;6174;49.058;8.524;2023-08-06T19:53:37;15.40;99.90
12223;DHT22;6174;49.058;8.524;2023-08-06T19:56:05;15.60;99.90
12223;DHT22;6174;49.058;8.524;2023-08-06T19:58:33;15.00;99.90
12223;DHT22;6174;49.058;8.524;2023-08-06T20:01:02;14.90;99.90
12223;DHT22;6174;49.058;8.524;2023-08-06T20:03:29;14.70;99.90
12223;DHT22;6174;49.058;8.524;2023-08-06T20:05:58;15.10;99.90
12223;DHT22;6174;49.058;8.524;2023-08-06T20:08:28;14.70;99.90
12223;DHT22;6174;49.058;8.524;2023-08-06T20:10:56;14.60;99.90
12223;DHT22;6174;49.058;8.524;2023-08-06T20:13:23;14.40;99.90
12223;DHT22;6174;49.058;8.524;2023-08-06T20:15:50;14.60;99.90
12223;DHT22;6174;49.058;8.524;2023-08-06T20:18:17;14.40;99.90
12223;DHT22;6174;49.058;8.524;2023-08-06T20:20:55;14.20;99.90
12223;DHT22;6174;49.058;8.524;2023-08-06T20:23:22;14.30;99.90
12223;DHT22;6174;49.058;8.524;2023-08-06T20:25:49;14.10;99.90
12223;DHT22;6174;49.058;8.524;2023-08-06T20:28:17;14.00;99.90
12223;DHT22;6174;49.058;8.524;2023-08-06T20:30:44;14.00;99.90
12223;DHT22;6174;49.058;8.524;2023-08-06T20:33:11;13.90;99.90
12223;DHT22;6174;49.058;8.524;2023-08-06T20:35:39;14.10;99.90
12223;DHT22;6174;49.058;8.524;2023-08-06T20:38:21;13.80;99.90
12223;DHT22;6174;49.058;8.524;2023-08-06T20:41:25;13.70;99.90
12223;DHT22;6174;49.058;8.524;2023-08-06T20:47:29;13.70;99.90
12223;DHT22;6174;49.058;8.524;2023-08-06T20:49:56;13.60;99.90
12223;DHT22;6174;49.058;8.524;2023-08-06T20:52:23;13.50;99.90
12223;DHT22;6174;49.058;8.524;2023-08-06T20:54:50;13.50;99.90
12223;DHT22;6174;49.058;8.524;2023-08-06T20:57:17;13.50;99.90
12223;DHT22;6174;49.058;8.524;2023-08-06T20:59:44;13.50;99.90
12223;DHT22;6174;49.058;8.524;2023-08-06T21:02:10;13.50;99.90
12223;DHT22;6174;49.058;8.524;2023-08-06T21:04:40;13.50;99.90
12223;DHT22;6174;49.058;8.524;2023-08-06T21:07:07;13.50;99.90
12223;DHT22;6174;49.058;8.524;2023-08-06T21:09:34;13.40;99.90
12223;DHT22;6174;49.058;8.524;2023-08-06T21:12:04;13.30;99.90
12223;DHT22;6174;49.058;8.524;2023-08-06T21:14:31;13.40;99.90
12223;DHT22;6174;49.058;8.524;2023-08-06T21:16:57;13.40;99.90
12223;DHT22;6174;49.058;8.524;2023-08-06T21:19:24;13.40;99.90
12223;DHT22;6174;49.058;8.524;2023-08-06T21:21:52;13.40;99.90
12223;DHT22;6174;49.058;8.524;2023-08-06T21:24:20;13.40;99.90
12223;DHT22;6174;49.058;8.524;2023-08-06T21:26:46;13.40;99.90
12223;DHT22;6174;49.058;8.524;2023-08-06T21:29:13;13.30;99.90
12223;DHT22;6174;49.058;8.524;2023-08-06T21:31:40;13.40;99.90
12223;DHT22;6174;49.058;8.524;2023-08-06T21:34:07;13.40;99.90
12223;DHT22;6174;49.058;8.524;2023-08-06T21:36:33;13.40;99.90
12223;DHT22;6174;49.058;8.524;2023-08-06T21:39:01;13.40;99.90
12223;DHT22;6174;49.058;8.524;2023-08-06T21:41:28;13.40;99.90
12223;DHT22;6174;49.058;8.524;2023-08-06T21:43:55;13.40;99.90
